sensor_id;sensor_type;location;lat;lon;timestamp;temperature;humidity
65559;DHT22;52203;51.998;5.140;2023-02-05T00:00:19;10.20;118.99
65559;DHT22;52203;51.998;5.140;2023-02-05T00:02:46;10.18;118.99
65559;DHT22;52203;51.998;5.140;2023-02-05T00:05:11;10.16;118.99
65559;DHT22;52203;51.998;5.140;2023-02-05T00:07:37;10.14;118.99
65559;DHT22;52203;51.998;5.140;2023-02-05T00:10:03;10.12;118.99
65559;DHT22;52203;51.998;5.140;2023-02-05T00:12:29;10.12;118.99
65559;DHT22;52203;51.998;5.140;2023-02-05T00:14:55;10.12;118.99
65559;DHT22;52203;51.998;5.140;2023-02-05T00:17:20;10.09;118.99
65559;DHT22;52203;51.998;5.140;2023-02-05T00:19:46;10.10;118.99
65559;DHT22;52203;51.998;5.140;2023-02-05T00:22:11;10.08;118.99
65559;DHT22;52203;51.998;5.140;2023-02-05T00:24:37;10.06;118.99
65559;DHT22;52203;51.998;5.140;2023-02-05T00:27:03;10.05;118.99
65559;DHT22;52203;51.998;5.140;2023-02-05T00:29:29;10.05;118.99
65559;DHT22;52203;51.998;5.140;2023-02-05T00:31:55;10.06;118.99
65559;DHT22;52203;51.998;5.140;2023-02-05T00:34:21;10.03;118.99
65559;DHT22;52203;51.998;5.140;2023-02-05T00:36:46;10.01;118.99
65559;DHT22;52203;51.998;5.140;2023-02-05T00:39:12;10.00;118.99
65559;DHT22;52203;51.998;5.140;2023-02-05T00:41:39;10.03;118.99
65559;DHT22;52203;51.998;5.140;2023-02-05T00:44:05;10.05;118.99
65559;DHT22;52203;51.998;5.140;2023-02-05T00:46:31;10.07;118.99
65559;DHT22;52203;51.998;5.140;2023-02-05T00:48:57;10.04;118.99
65559;DHT22;52203;51.998;5.140;2023-02-05T00:51:22;10.03;118.99
65559;DHT22;52203;51.998;5.140;2023-02-05T00:53:48;10.03;118.99
65559;DHT22;52203;51.998;5.140;2023-02-05T00:56:15;10.04;118.99
65559;DHT22;52203;51.998;5.140;2023-02-05T00:58:41;10.04;118.99
65559;DHT22;52203;51.998;5.140;2023-02-05T01:01:12;10.04;118.99
65559;DHT22;52203;51.998;5.140;2023-02-05T01:03:39;10.09;118.99
65559;DHT22;52203;51.998;5.140;2023-02-05T01:06:05;10.03;118.99
65559;DHT22;52203;51.998;5.140;2023-02-05T01:08:30;10.03;118.99
65559;DHT22;52203;51.998;5.140;2023-02-05T01:10:56;10.01;118.99
65559;DHT22;52203;51.998;5.140;2023-02-05T01:13:22;10.01;118.99
65559;DHT22;52203;51.998;5.140;2023-02-05T01:15:48;10.00;118.99
65559;DHT22;52203;51.998;5.140;2023-02-05T01:18:13;10.00;118.99
65559;DHT22;52203;51.998;5.140;2023-02-05T01:20:40;9.97;118.99
65559;DHT22;52203;51.998;5.140;2023-02-05T01:23:06;9.95;118.99
65559;DHT22;52203;51.998;5.140;2023-02-05T01:25:31;9.94;118.99
65559;DHT22;52203;51.998;5.140;2023-02-05T01:27:57;9.98;118.99
65559;DHT22;52203;51.998;5.140;2023-02-05T01:30:22;9.93;118.99
65559;DHT22;52203;51.998;5.140;2023-02-05T01:32:48;9.93;118.99
65559;DHT22;52203;51.998;5.140;2023-02-05T01:35:14;9.94;118.99
65559;DHT22;52203;51.998;5.140;2023-02-05T01:37:39;9.93;118.99
65559;DHT22;52203;51.998;5.140;2023-02-05T01:40:05;9.95;118.99
65559;DHT22;52203;51.998;5.140;2023-02-05T01:42:31;9.92;118.99
65559;DHT22;52203;51.998;5.140;2023-02-05T01:47:45;9.92;118.99
65559;DHT22;52203;51.998;5.140;2023-02-05T01:50:10;9.92;118.99
65559;DHT22;52203;51.998;5.140;2023-02-05T01:52:36;9.90;118.99
65559;DHT22;52203;51.998;5.140;2023-02-05T01:55:03;9.89;118.99
65559;DHT22;52203;51.998;5.140;2023-02-05T01:57:29;9.88;118.99
65559;DHT22;52203;51.998;5.140;2023-02-05T01:59:56;9.89;118.99
65559;DHT22;52203;51.998;5.140;2023-02-05T02:02:21;9.89;118.99
65559;DHT22;52203;51.998;5.140;2023-02-05T02:04:54;9.89;118.99
65559;DHT22;52203;51.998;5.140;2023-02-05T02:07:23;9.88;118.99
65559;DHT22;52203;51.998;5.140;2023-02-05T02:09:50;9.90;118.99
65559;DHT22;52203;51.998;5.140;2023-02-05T02:12:24;9.89;118.99
65559;DHT22;52203;51.998;5.140;2023-02-05T02:14:53;9.85;118.99
65559;DHT22;52203;51.998;5.140;2023-02-05T02:17:19;9.90;118.99
65559;DHT22;52203;51.998;5.140;2023-02-05T02:20:03;9.93;118.99
65559;DHT22;52203;51.998;5.140;2023-02-05T02:27:52;9.90;118.99
65559;DHT22;52203;51.998;5.140;2023-02-05T02:33:18;9.89;118.99
65559;DHT22;52203;51.998;5.140;2023-02-05T02:38:35;9.86;118.99
65559;DHT22;52203;51.998;5.140;2023-02-05T02:41:16;9.83;118.99
65559;DHT22;52203;51.998;5.140;2023-02-05T02:43:49;9.80;118.99
65559;DHT22;52203;51.998;5.140;2023-02-05T02:49:04;9.84;118.99
65559;DHT22;52203;51.998;5.140;2023-02-05T02:51:30;9.83;118.99
65559;DHT22;52203;51.998;5.140;2023-02-05T02:53:59;9.82;118.99
65559;DHT22;52203;51.998;5.140;2023-02-05T02:56:30;9.80;118.99
65559;DHT22;52203;51.998;5.140;2023-02-05T02:59:02;9.80;118.99
65559;DHT22;52203;51.998;5.140;2023-02-05T03:01:33;9.78;118.99
65559;DHT22;52203;51.998;5.140;2023-02-05T03:04:05;9.72;118.99
65559;DHT22;52203;51.998;5.140;2023-02-05T03:06:33;9.72;118.99
65559;DHT22;52203;51.998;5.140;2023-02-05T03:09:07;9.71;118.99
65559;DHT22;52203;51.998;5.140;2023-02-05T03:11:35;9.75;118.99
65559;DHT22;52203;51.998;5.140;2023-02-05T03:14:01;9.69;118.99
65559;DHT22;52203;51.998;5.140;2023-02-05T03:16:26;9.67;118.99
65559;DHT22;52203;51.998;5.140;2023-02-05T03:18:53;9.68;118.99
65559;DHT22;52203;51.998;5.140;2023-02-05T03:21:27;9.67;118.99
65559;DHT22;52203;51.998;5.140;2023-02-05T03:23:53;9.66;118.99
65559;DHT22;52203;51.998;5.140;2023-02-05T03:26:30;9.68;118.99
65559;DHT22;52203;51.998;5.140;2023-02-05T03:28:57;9.66;118.99
65559;DHT22;52203;51.998;5.140;2023-02-05T03:31:34;9.67;118.99
65559;DHT22;52203;51.998;5.140;2023-02-05T03:34:21;9.65;118.99
65559;DHT22;52203;51.998;5.140;2023-02-05T03:44:55;9.65;118.99
65559;DHT22;52203;51.998;5.140;2023-02-05T03:52:33;9.67;118.99
65559;DHT22;52203;51.998;5.140;2023-02-05T03:55:21;9.68;118.99
65559;DHT22;52203;51.998;5.140;2023-02-05T03:58:03;9.63;118.99
65559;DHT22;52203;51.998;5.140;2023-02-05T04:00:31;9.64;118.99
65559;DHT22;52203;51.998;5.140;2023-02-05T04:02:57;9.62;118.99
65559;DHT22;52203;51.998;5.140;2023-02-05T04:05:22;9.66;118.99
65559;DHT22;52203;51.998;5.140;2023-02-05T04:07:49;9.63;118.99
65559;DHT22;52203;51.998;5.140;2023-02-05T04:10:15;9.64;118.99
65559;DHT22;52203;51.998;5.140;2023-02-05T04:12:41;9.64;118.99
65559;DHT22;52203;51.998;5.140;2023-02-05T04:15:06;9.59;118.99
65559;DHT22;52203;51.998;5.140;2023-02-05T04:17:33;9.59;118.99
65559;DHT22;52203;51.998;5.140;2023-02-05T04:19:59;9.60;118.99
65559;DHT22;52203;51.998;5.140;2023-02-05T04:22:24;9.56;118.99
65559;DHT22;52203;51.998;5.140;2023-02-05T04:24:50;9.63;118.99
65559;DHT22;52203;51.998;5.140;2023-02-05T04:27:15;9.57;118.99
65559;DHT22;52203;51.998;5.140;2023-02-05T04:29:40;9.62;118.99
65559;DHT22;52203;51.998;5.140;2023-02-05T04:32:06;9.61;118.99
65559;DHT22;52203;51.998;5.140;2023-02-05T04:34:31;9.57;118.99
65559;DHT22;52203;51.998;5.140;2023-02-05T04:36:56;9.56;118.99
65559;DHT22;52203;51.998;5.140;2023-02-05T04:39:22;9.56;118.99
65559;DHT22;52203;51.998;5.140;2023-02-05T04:41:47;9.53;118.99
65559;DHT22;52203;51.998;5.140;2023-02-05T04:44:13;9.55;118.99
65559;DHT22;52203;51.998;5.140;2023-02-05T04:46:38;9.57;118.99
65559;DHT22;52203;51.998;5.140;2023-02-05T04:49:03;9.54;118.99
65559;DHT22;52203;51.998;5.140;2023-02-05T04:51:29;9.55;118.99
65559;DHT22;52203;51.998;5.140;2023-02-05T04:53:54;9.54;118.99
65559;DHT22;52203;51.998;5.140;2023-02-05T04:56:20;9.55;118.99
65559;DHT22;52203;51.998;5.140;2023-02-05T04:58:45;9.56;118.99
65559;DHT22;52203;51.998;5.140;2023-02-05T05:01:11;9.55;118.99
65559;DHT22;52203;51.998;5.140;2023-02-05T05:03:37;9.55;118.99
65559;DHT22;52203;51.998;5.140;2023-02-05T05:06:03;9.57;118.99
65559;DHT22;52203;51.998;5.140;2023-02-05T05:08:28;9.59;118.99
65559;DHT22;52203;51.998;5.140;2023-02-05T05:10:54;9.60;118.99
65559;DHT22;52203;51.998;5.140;2023-02-05T05:13:19;9.55;118.99
65559;DHT22;52203;51.998;5.140;2023-02-05T05:15:51;9.56;118.99
65559;DHT22;52203;51.998;5.140;2023-02-05T05:18:16;9.59;118.99
65559;DHT22;52203;51.998;5.140;2023-02-05T05:20:42;9.57;118.99
65559;DHT22;52203;51.998;5.140;2023-02-05T05:23:07;9.51;118.99
65559;DHT22;52203;51.998;5.140;2023-02-05T05:25:32;9.53;118.99
65559;DHT22;52203;51.998;5.140;2023-02-05T05:27:58;9.49;118.99
65559;DHT22;52203;51.998;5.140;2023-02-05T05:30:23;9.52;118.99
65559;DHT22;52203;51.998;5.140;2023-02-05T05:32:49;9.48;118.99
65559;DHT22;52203;51.998;5.140;2023-02-05T05:35:14;9.52;118.99
65559;DHT22;52203;51.998;5.140;2023-02-05T05:37:39;9.49;118.99
65559;DHT22;52203;51.998;5.140;2023-02-05T05:40:05;9.49;118.99
65559;DHT22;52203;51.998;5.140;2023-02-05T05:42:49;9.48;118.99
65559;DHT22;52203;51.998;5.140;2023-02-05T05:45:33;9.48;118.99
65559;DHT22;52203;51.998;5.140;2023-02-05T05:47:58;9.45;118.99
65559;DHT22;52203;51.998;5.140;2023-02-05T05:50:24;9.46;118.99
65559;DHT22;52203;51.998;5.140;2023-02-05T05:52:49;9.46;118.99
65559;DHT22;52203;51.998;5.140;2023-02-05T05:55:14;9.45;118.99
65559;DHT22;52203;51.998;5.140;2023-02-05T05:57:40;9.47;118.99
65559;DHT22;52203;51.998;5.140;2023-02-05T06:00:05;9.42;118.99
65559;DHT22;52203;51.998;5.140;2023-02-05T06:02:31;9.40;118.99
65559;DHT22;52203;51.998;5.140;2023-02-05T06:04:56;9.38;118.99
65559;DHT22;52203;51.998;5.140;2023-02-05T06:07:22;9.37;118.99
65559;DHT22;52203;51.998;5.140;2023-02-05T06:09:47;9.40;118.99
65559;DHT22;52203;51.998;5.140;2023-02-05T06:12:13;9.42;118.99
65559;DHT22;52203;51.998;5.140;2023-02-05T06:14:38;9.41;118.99
65559;DHT22;52203;51.998;5.140;2023-02-05T06:17:03;9.37;118.99
65559;DHT22;52203;51.998;5.140;2023-02-05T06:19:29;9.38;118.99
65559;DHT22;52203;51.998;5.140;2023-02-05T06:21:54;9.37;118.99
65559;DHT22;52203;51.998;5.140;2023-02-05T06:24:20;9.37;118.99
65559;DHT22;52203;51.998;5.140;2023-02-05T06:26:45;9.36;118.99
65559;DHT22;52203;51.998;5.140;2023-02-05T06:29:10;9.34;118.99
65559;DHT22;52203;51.998;5.140;2023-02-05T06:31:36;9.37;118.99
65559;DHT22;52203;51.998;5.140;2023-02-05T06:34:01;9.37;118.99
65559;DHT22;52203;51.998;5.140;2023-02-05T06:36:27;9.37;118.99
65559;DHT22;52203;51.998;5.140;2023-02-05T06:38:52;9.37;118.99
65559;DHT22;52203;51.998;5.140;2023-02-05T06:41:17;9.37;118.99
65559;DHT22;52203;51.998;5.140;2023-02-05T06:43:43;9.33;118.99
65559;DHT22;52203;51.998;5.140;2023-02-05T06:46:08;9.33;118.99
65559;DHT22;52203;51.998;5.140;2023-02-05T06:48:33;9.34;118.99
65559;DHT22;52203;51.998;5.140;2023-02-05T06:50:59;9.35;118.99
65559;DHT22;52203;51.998;5.140;2023-02-05T06:53:24;9.35;118.99
65559;DHT22;52203;51.998;5.140;2023-02-05T06:55:50;9.31;118.99
65559;DHT22;52203;51.998;5.140;2023-02-05T06:58:15;9.33;118.99
65559;DHT22;52203;51.998;5.140;2023-02-05T07:00:41;9.34;118.99
65559;DHT22;52203;51.998;5.140;2023-02-05T07:03:07;9.32;118.99
65559;DHT22;52203;51.998;5.140;2023-02-05T07:05:32;9.30;118.99
65559;DHT22;52203;51.998;5.140;2023-02-05T07:07:58;9.30;118.99
65559;DHT22;52203;51.998;5.140;2023-02-05T07:10:24;9.30;118.99
65559;DHT22;52203;51.998;5.140;2023-02-05T07:12:49;9.32;118.99
65559;DHT22;52203;51.998;5.140;2023-02-05T07:15:14;9.34;118.99
65559;DHT22;52203;51.998;5.140;2023-02-05T07:17:40;9.34;118.99
65559;DHT22;52203;51.998;5.140;2023-02-05T07:20:05;9.31;118.99
65559;DHT22;52203;51.998;5.140;2023-02-05T07:22:31;9.30;118.99
65559;DHT22;52203;51.998;5.140;2023-02-05T07:24:56;9.31;118.99
65559;DHT22;52203;51.998;5.140;2023-02-05T07:27:22;9.29;118.99
65559;DHT22;52203;51.998;5.140;2023-02-05T07:29:47;9.31;118.99
65559;DHT22;52203;51.998;5.140;2023-02-05T07:32:13;9.32;118.99
65559;DHT22;52203;51.998;5.140;2023-02-05T07:34:38;9.26;118.99
65559;DHT22;52203;51.998;5.140;2023-02-05T07:37:03;9.30;118.99
65559;DHT22;52203;51.998;5.140;2023-02-05T07:39:29;9.31;118.99
65559;DHT22;52203;51.998;5.140;2023-02-05T07:41:54;9.29;118.99
65559;DHT22;52203;51.998;5.140;2023-02-05T07:44:20;9.24;118.99
65559;DHT22;52203;51.998;5.140;2023-02-05T07:46:45;9.27;118.99
65559;DHT22;52203;51.998;5.140;2023-02-05T07:49:11;9.26;118.99
65559;DHT22;52203;51.998;5.140;2023-02-05T07:51:36;9.27;118.99
65559;DHT22;52203;51.998;5.140;2023-02-05T07:54:06;9.27;118.99
65559;DHT22;52203;51.998;5.140;2023-02-05T07:56:31;9.29;118.99
65559;DHT22;52203;51.998;5.140;2023-02-05T07:58:57;9.29;118.99
65559;DHT22;52203;51.998;5.140;2023-02-05T08:01:22;9.26;118.99
65559;DHT22;52203;51.998;5.140;2023-02-05T08:03:47;9.27;118.99
65559;DHT22;52203;51.998;5.140;2023-02-05T08:06:13;9.26;118.99
65559;DHT22;52203;51.998;5.140;2023-02-05T08:08:39;9.26;118.99
65559;DHT22;52203;51.998;5.140;2023-02-05T08:11:05;9.29;118.99
65559;DHT22;52203;51.998;5.140;2023-02-05T08:13:31;9.27;118.99
65559;DHT22;52203;51.998;5.140;2023-02-05T08:15:57;9.20;118.99
65559;DHT22;52203;51.998;5.140;2023-02-05T08:18:22;9.21;118.99
65559;DHT22;52203;51.998;5.140;2023-02-05T08:20:51;9.20;118.99
65559;DHT22;52203;51.998;5.140;2023-02-05T08:23:17;9.21;118.99
65559;DHT22;52203;51.998;5.140;2023-02-05T08:25:43;9.23;118.99
65559;DHT22;52203;51.998;5.140;2023-02-05T08:28:08;9.21;118.99
65559;DHT22;52203;51.998;5.140;2023-02-05T08:30:34;9.20;118.99
65559;DHT22;52203;51.998;5.140;2023-02-05T08:32:59;9.18;118.99
65559;DHT22;52203;51.998;5.140;2023-02-05T08:35:25;9.19;118.99
65559;DHT22;52203;51.998;5.140;2023-02-05T08:37:50;9.20;118.99
65559;DHT22;52203;51.998;5.140;2023-02-05T08:40:16;9.18;118.99
65559;DHT22;52203;51.998;5.140;2023-02-05T08:42:41;9.22;118.99
65559;DHT22;52203;51.998;5.140;2023-02-05T08:45:07;9.18;118.99
65559;DHT22;52203;51.998;5.140;2023-02-05T08:47:35;9.18;118.99
65559;DHT22;52203;51.998;5.140;2023-02-05T08:50:01;9.19;118.99
65559;DHT22;52203;51.998;5.140;2023-02-05T08:52:27;9.18;118.99
65559;DHT22;52203;51.998;5.140;2023-02-05T08:54:52;9.19;118.99
65559;DHT22;52203;51.998;5.140;2023-02-05T08:57:18;9.22;118.99
65559;DHT22;52203;51.998;5.140;2023-02-05T08:59:43;9.21;118.99
65559;DHT22;52203;51.998;5.140;2023-02-05T09:02:12;9.20;118.99
65559;DHT22;52203;51.998;5.140;2023-02-05T09:04:38;9.18;118.99
65559;DHT22;52203;51.998;5.140;2023-02-05T09:07:03;9.21;118.99
65559;DHT22;52203;51.998;5.140;2023-02-05T09:09:30;9.19;118.99
65559;DHT22;52203;51.998;5.140;2023-02-05T09:11:56;9.20;118.99
65559;DHT22;52203;51.998;5.140;2023-02-05T09:14:22;9.20;118.99
65559;DHT22;52203;51.998;5.140;2023-02-05T09:16:48;9.18;118.99
65559;DHT22;52203;51.998;5.140;2023-02-05T09:19:13;9.18;118.99
65559;DHT22;52203;51.998;5.140;2023-02-05T09:21:39;9.19;118.99
65559;DHT22;52203;51.998;5.140;2023-02-05T09:24:05;9.20;118.99
65559;DHT22;52203;51.998;5.140;2023-02-05T09:26:30;9.20;118.99
65559;DHT22;52203;51.998;5.140;2023-02-05T09:28:56;9.20;118.99
65559;DHT22;52203;51.998;5.140;2023-02-05T09:31:22;9.18;118.99
65559;DHT22;52203;51.998;5.140;2023-02-05T09:33:47;9.19;118.99
65559;DHT22;52203;51.998;5.140;2023-02-05T09:36:17;9.18;118.99
65559;DHT22;52203;51.998;5.140;2023-02-05T09:38:42;9.22;118.99
65559;DHT22;52203;51.998;5.140;2023-02-05T09:46:35;9.19;118.99
65559;DHT22;52203;51.998;5.140;2023-02-05T09:51:37;9.23;118.99
65559;DHT22;52203;51.998;5.140;2023-02-05T09:54:15;9.22;118.99
65559;DHT22;52203;51.998;5.140;2023-02-05T09:56:42;9.24;118.99
65559;DHT22;52203;51.998;5.140;2023-02-05T09:59:10;9.25;118.99
65559;DHT22;52203;51.998;5.140;2023-02-05T10:01:46;9.21;118.99
65559;DHT22;52203;51.998;5.140;2023-02-05T10:04:12;9.22;118.99
65559;DHT22;52203;51.998;5.140;2023-02-05T10:06:40;9.22;118.99
65559;DHT22;52203;51.998;5.140;2023-02-05T10:22:21;9.25;118.99
65559;DHT22;52203;51.998;5.140;2023-02-05T10:24:54;9.24;118.99
65559;DHT22;52203;51.998;5.140;2023-02-05T10:27:25;9.24;118.99
65559;DHT22;52203;51.998;5.140;2023-02-05T10:37:19;9.25;118.99
65559;DHT22;52203;51.998;5.140;2023-02-05T10:39:45;9.22;118.99
65559;DHT22;52203;51.998;5.140;2023-02-05T10:42:28;9.21;118.99
65559;DHT22;52203;51.998;5.140;2023-02-05T10:44:58;9.22;118.99
65559;DHT22;52203;51.998;5.140;2023-02-05T10:47:38;9.27;118.99
65559;DHT22;52203;51.998;5.140;2023-02-05T10:50:13;9.27;118.99
65559;DHT22;52203;51.998;5.140;2023-02-05T10:52:40;9.21;118.99
65559;DHT22;52203;51.998;5.140;2023-02-05T10:55:09;9.23;118.99
65559;DHT22;52203;51.998;5.140;2023-02-05T10:57:34;9.21;118.99
65559;DHT22;52203;51.998;5.140;2023-02-05T11:00:14;9.22;118.99
65559;DHT22;52203;51.998;5.140;2023-02-05T11:02:40;9.24;118.99
65559;DHT22;52203;51.998;5.140;2023-02-05T11:05:51;9.22;118.99
65559;DHT22;52203;51.998;5.140;2023-02-05T11:07:53;9.20;118.99
65559;DHT22;52203;51.998;5.140;2023-02-05T11:10:20;9.21;118.99
65559;DHT22;52203;51.998;5.140;2023-02-05T11:13:28;9.16;118.99
65559;DHT22;52203;51.998;5.140;2023-02-05T11:15:34;9.16;118.99
65559;DHT22;52203;51.998;5.140;2023-02-05T11:18:06;9.20;118.99
65559;DHT22;52203;51.998;5.140;2023-02-05T11:20:38;9.14;118.99
65559;DHT22;52203;51.998;5.140;2023-02-05T11:23:10;9.11;118.99
65559;DHT22;52203;51.998;5.140;2023-02-05T11:25:42;8.89;118.99
65559;DHT22;52203;51.998;5.140;2023-02-05T11:28:17;9.00;118.99
65559;DHT22;52203;51.998;5.140;2023-02-05T11:30:43;9.00;118.99
65559;DHT22;52203;51.998;5.140;2023-02-05T11:33:22;9.03;118.99
65559;DHT22;52203;51.998;5.140;2023-02-05T11:35:58;9.02;118.99
65559;DHT22;52203;51.998;5.140;2023-02-05T11:38:44;9.02;118.99
65559;DHT22;52203;51.998;5.140;2023-02-05T11:41:10;9.01;118.99
65559;DHT22;52203;51.998;5.140;2023-02-05T11:43:37;9.01;118.99
65559;DHT22;52203;51.998;5.140;2023-02-05T11:46:05;9.03;118.99
65559;DHT22;52203;51.998;5.140;2023-02-05T11:48:33;9.00;118.99
65559;DHT22;52203;51.998;5.140;2023-02-05T11:51:02;9.04;118.99
65559;DHT22;52203;51.998;5.140;2023-02-05T11:53:28;8.97;118.99
65559;DHT22;52203;51.998;5.140;2023-02-05T11:55:57;8.98;118.99
65559;DHT22;52203;51.998;5.140;2023-02-05T11:58:25;8.97;118.99
65559;DHT22;52203;51.998;5.140;2023-02-05T12:00:54;8.98;118.99
65559;DHT22;52203;51.998;5.140;2023-02-05T12:03:21;8.94;118.99
65559;DHT22;52203;51.998;5.140;2023-02-05T12:16:19;8.92;118.99
65559;DHT22;52203;51.998;5.140;2023-02-05T12:21:35;8.94;118.99
65559;DHT22;52203;51.998;5.140;2023-02-05T12:26:29;8.94;118.99
65559;DHT22;52203;51.998;5.140;2023-02-05T12:29:01;8.91;118.99
65559;DHT22;52203;51.998;5.140;2023-02-05T12:53:29;8.32;118.99
65559;DHT22;52203;51.998;5.140;2023-02-05T12:58:09;8.35;118.99
65559;DHT22;52203;51.998;5.140;2023-02-05T13:03:44;8.30;118.99
65559;DHT22;52203;51.998;5.140;2023-02-05T13:06:17;8.32;118.99
65559;DHT22;52203;51.998;5.140;2023-02-05T13:08:52;8.32;118.99
65559;DHT22;52203;51.998;5.140;2023-02-05T13:11:42;8.29;118.99
65559;DHT22;52203;51.998;5.140;2023-02-05T13:16:46;8.31;118.99
65559;DHT22;52203;51.998;5.140;2023-02-05T13:19:28;8.31;118.99
65559;DHT22;52203;51.998;5.140;2023-02-05T13:21:56;8.30;118.99
65559;DHT22;52203;51.998;5.140;2023-02-05T13:24:59;8.24;118.99
65559;DHT22;52203;51.998;5.140;2023-02-05T13:27:48;8.24;118.99
65559;DHT22;52203;51.998;5.140;2023-02-05T13:30:41;8.26;118.99
65559;DHT22;52203;51.998;5.140;2023-02-05T13:33:07;8.24;118.99
65559;DHT22;52203;51.998;5.140;2023-02-05T13:35:38;8.23;118.99
65559;DHT22;52203;51.998;5.140;2023-02-05T13:41:12;8.21;118.99
65559;DHT22;52203;51.998;5.140;2023-02-05T14:04:40;8.17;118.99
65559;DHT22;52203;51.998;5.140;2023-02-05T14:07:07;8.12;118.99
65559;DHT22;52203;51.998;5.140;2023-02-05T14:09:38;8.13;118.99
65559;DHT22;52203;51.998;5.140;2023-02-05T14:12:05;8.16;118.99
65559;DHT22;52203;51.998;5.140;2023-02-05T14:14:38;8.14;118.99
65559;DHT22;52203;51.998;5.140;2023-02-05T14:19:49;8.13;118.99
65559;DHT22;52203;51.998;5.140;2023-02-05T14:22:39;8.08;118.99
65559;DHT22;52203;51.998;5.140;2023-02-05T14:27:50;8.08;118.99
65559;DHT22;52203;51.998;5.140;2023-02-05T14:32:54;8.08;118.99
65559;DHT22;52203;51.998;5.140;2023-02-05T14:35:33;8.07;118.99
65559;DHT22;52203;51.998;5.140;2023-02-05T14:41:02;8.07;118.99
65559;DHT22;52203;51.998;5.140;2023-02-05T14:43:35;8.07;118.99
65559;DHT22;52203;51.998;5.140;2023-02-05T14:48:47;8.07;118.99
65559;DHT22;52203;51.998;5.140;2023-02-05T14:51:19;8.05;118.99
65559;DHT22;52203;51.998;5.140;2023-02-05T14:53:52;8.04;118.99
65559;DHT22;52203;51.998;5.140;2023-02-05T14:56:26;8.04;118.99
65559;DHT22;52203;51.998;5.140;2023-02-05T14:58:56;8.00;118.99
65559;DHT22;52203;51.998;5.140;2023-02-05T15:03:59;7.98;118.99
65559;DHT22;52203;51.998;5.140;2023-02-05T15:06:26;8.00;118.99
65559;DHT22;52203;51.998;5.140;2023-02-05T15:16:46;8.03;118.99
65559;DHT22;52203;51.998;5.140;2023-02-05T15:19:12;8.01;118.99
65559;DHT22;52203;51.998;5.140;2023-02-05T15:21:40;8.00;118.99
65559;DHT22;52203;51.998;5.140;2023-02-05T15:31:43;7.99;118.99
65559;DHT22;52203;51.998;5.140;2023-02-05T15:34:27;7.97;118.99
65559;DHT22;52203;51.998;5.140;2023-02-05T15:37:01;8.00;118.99
65559;DHT22;52203;51.998;5.140;2023-02-05T15:41:54;7.94;118.99
65559;DHT22;52203;51.998;5.140;2023-02-05T15:44:25;7.93;118.99
65559;DHT22;52203;51.998;5.140;2023-02-05T15:46:51;7.93;118.99
65559;DHT22;52203;51.998;5.140;2023-02-05T15:49:18;7.92;118.99
65559;DHT22;52203;51.998;5.140;2023-02-05T15:51:45;7.91;118.99
65559;DHT22;52203;51.998;5.140;2023-02-05T15:54:15;7.91;118.99
65559;DHT22;52203;51.998;5.140;2023-02-05T15:56:41;7.89;118.99
65559;DHT22;52203;51.998;5.140;2023-02-05T15:59:11;7.89;118.99
65559;DHT22;52203;51.998;5.140;2023-02-05T16:01:38;7.89;118.99
65559;DHT22;52203;51.998;5.140;2023-02-05T16:06:47;7.87;118.99
65559;DHT22;52203;51.998;5.140;2023-02-05T16:09:19;7.89;118.99
65559;DHT22;52203;51.998;5.140;2023-02-05T16:11:46;7.88;118.99
65559;DHT22;52203;51.998;5.140;2023-02-05T16:14:13;7.87;118.99
65559;DHT22;52203;51.998;5.140;2023-02-05T16:16:40;7.84;118.99
65559;DHT22;52203;51.998;5.140;2023-02-05T16:19:09;7.84;118.99
65559;DHT22;52203;51.998;5.140;2023-02-05T16:21:38;7.84;118.99
65559;DHT22;52203;51.998;5.140;2023-02-05T16:24:05;7.82;118.99
65559;DHT22;52203;51.998;5.140;2023-02-05T16:26:52;7.82;118.99
65559;DHT22;52203;51.998;5.140;2023-02-05T16:29:38;7.82;118.99
65559;DHT22;52203;51.998;5.140;2023-02-05T16:32:13;7.81;118.99
65559;DHT22;52203;51.998;5.140;2023-02-05T16:34:40;7.77;118.99
65559;DHT22;52203;51.998;5.140;2023-02-05T16:37:06;7.78;118.99
65559;DHT22;52203;51.998;5.140;2023-02-05T16:39:46;7.78;118.99
65559;DHT22;52203;51.998;5.140;2023-02-05T16:45:30;7.75;118.99
65559;DHT22;52203;51.998;5.140;2023-02-05T16:50:48;7.76;118.99
65559;DHT22;52203;51.998;5.140;2023-02-05T16:53:22;7.78;118.99
65559;DHT22;52203;51.998;5.140;2023-02-05T16:55:47;7.78;118.99
65559;DHT22;52203;51.998;5.140;2023-02-05T16:58:16;7.82;118.99
65559;DHT22;52203;51.998;5.140;2023-02-05T17:00:49;7.84;118.99
65559;DHT22;52203;51.998;5.140;2023-02-05T17:03:15;7.85;118.99
65559;DHT22;52203;51.998;5.140;2023-02-05T17:05:42;7.87;118.99
65559;DHT22;52203;51.998;5.140;2023-02-05T17:08:09;7.89;118.99
65559;DHT22;52203;51.998;5.140;2023-02-05T17:13:56;7.91;118.99
65559;DHT22;52203;51.998;5.140;2023-02-05T17:19:21;7.92;118.99
65559;DHT22;52203;51.998;5.140;2023-02-05T17:21:38;7.96;118.99
65559;DHT22;52203;51.998;5.140;2023-02-05T17:24:03;7.94;118.99
65559;DHT22;52203;51.998;5.140;2023-02-05T17:26:34;7.98;118.99
65559;DHT22;52203;51.998;5.140;2023-02-05T17:29:04;7.94;118.99
65559;DHT22;52203;51.998;5.140;2023-02-05T17:31:32;7.98;118.99
65559;DHT22;52203;51.998;5.140;2023-02-05T17:33:58;7.98;118.99
65559;DHT22;52203;51.998;5.140;2023-02-05T17:36:24;7.98;118.99
65559;DHT22;52203;51.998;5.140;2023-02-05T17:38:49;7.98;118.99
65559;DHT22;52203;51.998;5.140;2023-02-05T17:41:25;7.98;118.99
65559;DHT22;52203;51.998;5.140;2023-02-05T17:44:13;7.98;118.99
65559;DHT22;52203;51.998;5.140;2023-02-05T17:46:40;7.97;118.99
65559;DHT22;52203;51.998;5.140;2023-02-05T17:49:06;8.00;118.99
65559;DHT22;52203;51.998;5.140;2023-02-05T17:51:32;8.00;118.99
65559;DHT22;52203;51.998;5.140;2023-02-05T17:53:57;7.99;118.99
65559;DHT22;52203;51.998;5.140;2023-02-05T17:56:23;7.99;118.99
65559;DHT22;52203;51.998;5.140;2023-02-05T17:58:49;8.00;118.99
65559;DHT22;52203;51.998;5.140;2023-02-05T18:01:14;8.00;118.99
65559;DHT22;52203;51.998;5.140;2023-02-05T18:03:40;8.02;118.99
65559;DHT22;52203;51.998;5.140;2023-02-05T18:06:06;8.00;118.99
65559;DHT22;52203;51.998;5.140;2023-02-05T18:08:31;8.01;118.99
65559;DHT22;52203;51.998;5.140;2023-02-05T18:11:00;7.99;118.99
65559;DHT22;52203;51.998;5.140;2023-02-05T18:13:25;8.01;118.99
65559;DHT22;52203;51.998;5.140;2023-02-05T18:15:51;8.02;118.99
65559;DHT22;52203;51.998;5.140;2023-02-05T18:18:18;8.02;118.99
65559;DHT22;52203;51.998;5.140;2023-02-05T18:20:44;8.04;118.99
65559;DHT22;52203;51.998;5.140;2023-02-05T18:23:09;8.03;118.99
65559;DHT22;52203;51.998;5.140;2023-02-05T18:25:36;8.04;118.99
65559;DHT22;52203;51.998;5.140;2023-02-05T18:28:02;8.02;118.99
65559;DHT22;52203;51.998;5.140;2023-02-05T18:30:28;8.04;118.99
65559;DHT22;52203;51.998;5.140;2023-02-05T18:32:53;8.03;118.99